Orbital elements of FENGYUN 1C DEB
| Launched | 9 May 1999 |
| Flight ended | – |
| Launch site | Taiyuan Space Center, PRC |
| Owner | People's Republic of China |
| NORAD ID | 30010 |
| Date fetched |
Epoch osculation |
Inc. [°] |
Ecc. | RA asc node [hr] |
Arg Peri. [°] |
Mean anom [°] |
Mean motion [rev/day] |
Abs. mag |
| Date fetched |
Epoch osculation |
Inc. [°] |
Ecc. | RA asc node [hr] |
Arg Peri. [°] |
Mean anom [°] |
Mean motion [rev/day] |
Abs. mag |
| 2026 May 03 17:57 | 2026 Apr 30 11:19:02 | 99.0669 | 0.00733 | 21.4836 | 170.4590 | 262.8220 | 14.25073 | – |
| 2026 May 02 17:57 | 2026 Apr 30 11:19:02 | 99.0669 | 0.00733 | 21.4836 | 170.4590 | 262.8220 | 14.25073 | – |
| 2026 May 01 17:56 | 2026 Apr 30 11:19:02 | 99.0669 | 0.00733 | 21.4836 | 170.4590 | 262.8220 | 14.25073 | – |
| 2026 Apr 30 17:56 | 2026 Apr 30 11:19:02 | 99.0669 | 0.00733 | 21.4836 | 170.4590 | 262.8220 | 14.25073 | – |
| 2026 Apr 29 17:57 | 2026 Apr 24 11:50:16 | 99.0676 | 0.00729 | 21.0719 | 187.6505 | 262.8220 | 14.25073 | – |
| 2026 Apr 28 17:56 | 2026 Apr 24 11:50:16 | 99.0676 | 0.00729 | 21.0719 | 187.6505 | 262.8220 | 14.25073 | – |
| 2026 Apr 27 17:58 | 2026 Apr 24 11:50:16 | 99.0676 | 0.00729 | 21.0719 | 187.6505 | 262.8220 | 14.25073 | – |
| 2026 Apr 26 17:58 | 2026 Apr 24 11:50:16 | 99.0676 | 0.00729 | 21.0719 | 187.6505 | 262.8220 | 14.25073 | – |
| 2026 Apr 25 17:58 | 2026 Apr 24 11:50:16 | 99.0676 | 0.00729 | 21.0719 | 187.6505 | 262.8220 | 14.25073 | – |
| 2026 Apr 24 17:59 | 2026 Apr 24 11:50:16 | 99.0676 | 0.00729 | 21.0719 | 187.6505 | 262.8220 | 14.25073 | – |
| 2026 Apr 23 17:57 | 2026 Apr 19 12:21:35 | 99.0680 | 0.00727 | 20.7291 | 202.0191 | 262.8220 | 14.25073 | – |
| 2026 Apr 22 17:57 | 2026 Apr 19 12:21:35 | 99.0680 | 0.00727 | 20.7291 | 202.0191 | 262.8220 | 14.25073 | – |
| 2026 Apr 21 17:57 | 2026 Apr 19 12:21:35 | 99.0680 | 0.00727 | 20.7291 | 202.0191 | 262.8220 | 14.25073 | – |
| 2026 Apr 20 17:57 | 2026 Apr 19 12:21:35 | 99.0680 | 0.00727 | 20.7291 | 202.0191 | 262.8220 | 14.25073 | – |
| 2026 Apr 19 17:58 | 2026 Apr 19 12:21:35 | 99.0680 | 0.00727 | 20.7291 | 202.0191 | 262.8220 | 14.25073 | – |
| 2026 Apr 18 17:56 | 2026 Apr 13 00:09:18 | 99.0687 | 0.00724 | 20.2808 | 220.8583 | 262.8220 | 14.25073 | – |
| 2026 Apr 16 17:57 | 2026 Apr 13 00:09:18 | 99.0687 | 0.00724 | 20.2808 | 220.8583 | 262.8220 | 14.25073 | – |
| 2026 Apr 14 17:57 | 2026 Apr 13 00:09:18 | 99.0687 | 0.00724 | 20.2808 | 220.8583 | 262.8220 | 14.25073 | – |
| 2026 Apr 13 17:57 | 2026 Apr 13 00:09:18 | 99.0687 | 0.00724 | 20.2808 | 220.8583 | 262.8220 | 14.25073 | – |
| 2026 Apr 12 17:57 | 2026 Apr 08 11:49:27 | 99.0690 | 0.00723 | 19.9699 | 233.9876 | 262.8220 | 14.25073 | – |
| 2026 Apr 11 17:57 | 2026 Apr 08 11:49:27 | 99.0690 | 0.00723 | 19.9699 | 233.9876 | 262.8220 | 14.25073 | – |
| 2026 Apr 10 17:58 | 2026 Apr 08 11:49:27 | 99.0690 | 0.00723 | 19.9699 | 233.9876 | 262.8220 | 14.25073 | – |
| 2026 Apr 09 18:01 | 2026 Apr 08 11:49:27 | 99.0690 | 0.00723 | 19.9699 | 233.9876 | 262.8220 | 14.25073 | – |
| 2026 Apr 08 17:57 | 2026 Apr 08 11:49:27 | 99.0690 | 0.00723 | 19.9699 | 233.9876 | 262.8220 | 14.25073 | – |
| 2026 Apr 07 17:57 | 2026 Apr 02 08:04:33 | 99.0695 | 0.00721 | 19.5459 | 251.9136 | 262.8220 | 14.25073 | – |
| 2026 Apr 06 17:57 | 2026 Apr 02 08:04:33 | 99.0695 | 0.00721 | 19.5459 | 251.9136 | 262.8220 | 14.25073 | – |